sensor_id;sensor_type;location;lat;lon;timestamp;P1;durP1;ratioP1;P2;durP2;ratioP2
11614;SDS011;5863;52.832;4.758;2023-07-13T00:01:49;6.05;;;1.70;;
11614;SDS011;5863;52.832;4.758;2023-07-13T00:04:18;8.98;;;1.73;;
11614;SDS011;5863;52.832;4.758;2023-07-13T00:06:46;5.40;;;1.70;;
11614;SDS011;5863;52.832;4.758;2023-07-13T00:09:13;6.22;;;1.80;;
11614;SDS011;5863;52.832;4.758;2023-07-13T00:11:41;6.43;;;1.77;;
11614;SDS011;5863;52.832;4.758;2023-07-13T00:14:09;4.28;;;1.60;;
11614;SDS011;5863;52.832;4.758;2023-07-13T00:16:39;6.93;;;1.88;;
11614;SDS011;5863;52.832;4.758;2023-07-13T00:19:09;5.90;;;1.50;;
11614;SDS011;5863;52.832;4.758;2023-07-13T00:21:36;7.30;;;1.98;;
11614;SDS011;5863;52.832;4.758;2023-07-13T00:24:04;4.00;;;1.75;;
11614;SDS011;5863;52.832;4.758;2023-07-13T00:26:32;7.60;;;2.20;;
11614;SDS011;5863;52.832;4.758;2023-07-13T00:28:59;6.55;;;2.40;;
11614;SDS011;5863;52.832;4.758;2023-07-13T00:31:26;8.40;;;2.30;;
11614;SDS011;5863;52.832;4.758;2023-07-13T00:33:55;9.80;;;2.47;;
11614;SDS011;5863;52.832;4.758;2023-07-13T00:36:22;10.90;;;2.47;;
11614;SDS011;5863;52.832;4.758;2023-07-13T00:38:48;11.60;;;2.53;;
11614;SDS011;5863;52.832;4.758;2023-07-13T00:41:15;9.98;;;2.35;;
11614;SDS011;5863;52.832;4.758;2023-07-13T00:43:42;8.35;;;2.00;;
11614;SDS011;5863;52.832;4.758;2023-07-13T00:46:21;6.60;;;2.38;;
11614;SDS011;5863;52.832;4.758;2023-07-13T00:48:50;8.68;;;2.38;;
11614;SDS011;5863;52.832;4.758;2023-07-13T00:51:21;10.98;;;2.55;;
11614;SDS011;5863;52.832;4.758;2023-07-13T00:53:51;8.65;;;2.03;;
11614;SDS011;5863;52.832;4.758;2023-07-13T00:56:21;9.55;;;2.38;;
11614;SDS011;5863;52.832;4.758;2023-07-13T00:58:48;10.85;;;2.53;;
11614;SDS011;5863;52.832;4.758;2023-07-13T01:01:16;13.82;;;2.65;;
11614;SDS011;5863;52.832;4.758;2023-07-13T01:03:44;6.47;;;2.05;;
11614;SDS011;5863;52.832;4.758;2023-07-13T01:06:11;7.63;;;2.00;;
11614;SDS011;5863;52.832;4.758;2023-07-13T01:08:40;10.85;;;2.20;;
11614;SDS011;5863;52.832;4.758;2023-07-13T01:11:08;7.65;;;1.90;;
11614;SDS011;5863;52.832;4.758;2023-07-13T01:13:35;4.85;;;1.70;;
11614;SDS011;5863;52.832;4.758;2023-07-13T01:16:03;7.22;;;2.03;;
11614;SDS011;5863;52.832;4.758;2023-07-13T01:18:39;7.72;;;2.30;;
11614;SDS011;5863;52.832;4.758;2023-07-13T01:21:07;4.65;;;1.67;;
11614;SDS011;5863;52.832;4.758;2023-07-13T01:23:34;7.35;;;2.38;;
11614;SDS011;5863;52.832;4.758;2023-07-13T01:26:01;10.10;;;2.00;;
11614;SDS011;5863;52.832;4.758;2023-07-13T01:28:28;7.13;;;2.30;;
11614;SDS011;5863;52.832;4.758;2023-07-13T01:30:57;4.15;;;1.45;;
11614;SDS011;5863;52.832;4.758;2023-07-13T01:33:26;7.13;;;1.95;;
11614;SDS011;5863;52.832;4.758;2023-07-13T01:35:54;6.72;;;2.03;;
11614;SDS011;5863;52.832;4.758;2023-07-13T01:38:25;5.03;;;1.65;;
11614;SDS011;5863;52.832;4.758;2023-07-13T01:40:52;8.73;;;2.50;;
11614;SDS011;5863;52.832;4.758;2023-07-13T01:43:19;4.25;;;1.80;;
11614;SDS011;5863;52.832;4.758;2023-07-13T01:45:46;6.70;;;2.47;;
11614;SDS011;5863;52.832;4.758;2023-07-13T01:48:13;7.13;;;2.47;;
11614;SDS011;5863;52.832;4.758;2023-07-13T01:50:40;6.25;;;2.10;;
11614;SDS011;5863;52.832;4.758;2023-07-13T01:53:08;12.63;;;2.42;;
11614;SDS011;5863;52.832;4.758;2023-07-13T01:55:37;5.10;;;2.15;;
11614;SDS011;5863;52.832;4.758;2023-07-13T01:58:04;7.63;;;2.08;;
11614;SDS011;5863;52.832;4.758;2023-07-13T02:00:31;11.13;;;2.17;;
11614;SDS011;5863;52.832;4.758;2023-07-13T02:02:58;10.65;;;2.20;;
11614;SDS011;5863;52.832;4.758;2023-07-13T02:05:25;9.32;;;2.30;;
11614;SDS011;5863;52.832;4.758;2023-07-13T02:07:52;9.48;;;1.98;;
11614;SDS011;5863;52.832;4.758;2023-07-13T02:10:19;8.15;;;2.20;;
11614;SDS011;5863;52.832;4.758;2023-07-13T02:12:49;6.45;;;2.10;;
11614;SDS011;5863;52.832;4.758;2023-07-13T02:15:17;9.55;;;2.75;;
11614;SDS011;5863;52.832;4.758;2023-07-13T02:17:44;12.00;;;2.22;;
11614;SDS011;5863;52.832;4.758;2023-07-13T02:20:11;7.32;;;2.28;;
11614;SDS011;5863;52.832;4.758;2023-07-13T02:22:38;13.63;;;2.40;;
11614;SDS011;5863;52.832;4.758;2023-07-13T02:25:05;8.00;;;2.08;;
11614;SDS011;5863;52.832;4.758;2023-07-13T02:27:32;6.88;;;2.10;;
11614;SDS011;5863;52.832;4.758;2023-07-13T02:30:01;10.85;;;2.33;;
11614;SDS011;5863;52.832;4.758;2023-07-13T02:32:28;8.63;;;2.60;;
11614;SDS011;5863;52.832;4.758;2023-07-13T02:34:55;7.82;;;2.17;;
11614;SDS011;5863;52.832;4.758;2023-07-13T02:37:22;7.78;;;2.72;;
11614;SDS011;5863;52.832;4.758;2023-07-13T02:39:49;11.05;;;3.00;;
11614;SDS011;5863;52.832;4.758;2023-07-13T02:42:15;10.05;;;2.83;;
11614;SDS011;5863;52.832;4.758;2023-07-13T02:44:42;9.18;;;2.63;;
11614;SDS011;5863;52.832;4.758;2023-07-13T02:47:11;6.95;;;1.95;;
11614;SDS011;5863;52.832;4.758;2023-07-13T02:49:38;11.80;;;2.42;;
11614;SDS011;5863;52.832;4.758;2023-07-13T02:52:05;9.15;;;2.17;;
11614;SDS011;5863;52.832;4.758;2023-07-13T02:54:32;8.07;;;2.22;;
11614;SDS011;5863;52.832;4.758;2023-07-13T02:56:59;10.15;;;2.50;;
11614;SDS011;5863;52.832;4.758;2023-07-13T02:59:26;8.52;;;2.60;;
11614;SDS011;5863;52.832;4.758;2023-07-13T03:01:53;6.53;;;2.30;;
11614;SDS011;5863;52.832;4.758;2023-07-13T03:04:22;10.98;;;2.90;;
11614;SDS011;5863;52.832;4.758;2023-07-13T03:06:49;12.05;;;2.72;;
11614;SDS011;5863;52.832;4.758;2023-07-13T03:09:16;11.32;;;3.17;;
11614;SDS011;5863;52.832;4.758;2023-07-13T03:11:43;11.68;;;2.78;;
11614;SDS011;5863;52.832;4.758;2023-07-13T03:14:10;8.15;;;3.00;;
11614;SDS011;5863;52.832;4.758;2023-07-13T03:16:37;11.32;;;2.72;;
11614;SDS011;5863;52.832;4.758;2023-07-13T03:19:04;9.40;;;2.53;;
11614;SDS011;5863;52.832;4.758;2023-07-13T03:21:33;7.18;;;2.42;;
11614;SDS011;5863;52.832;4.758;2023-07-13T03:24:00;11.13;;;2.63;;
11614;SDS011;5863;52.832;4.758;2023-07-13T03:26:27;6.18;;;2.13;;
11614;SDS011;5863;52.832;4.758;2023-07-13T03:28:53;7.63;;;2.42;;
11614;SDS011;5863;52.832;4.758;2023-07-13T03:31:21;5.53;;;2.30;;
11614;SDS011;5863;52.832;4.758;2023-07-13T03:33:52;11.73;;;2.40;;
11614;SDS011;5863;52.832;4.758;2023-07-13T03:36:19;10.63;;;2.22;;
11614;SDS011;5863;52.832;4.758;2023-07-13T03:38:50;7.88;;;2.30;;
11614;SDS011;5863;52.832;4.758;2023-07-13T03:41:18;9.95;;;3.28;;
11614;SDS011;5863;52.832;4.758;2023-07-13T03:43:46;11.07;;;3.17;;
11614;SDS011;5863;52.832;4.758;2023-07-13T03:46:13;4.78;;;2.17;;
11614;SDS011;5863;52.832;4.758;2023-07-13T03:48:41;8.02;;;2.15;;
11614;SDS011;5863;52.832;4.758;2023-07-13T03:51:10;8.00;;;2.35;;
11614;SDS011;5863;52.832;4.758;2023-07-13T03:53:40;12.68;;;2.50;;
11614;SDS011;5863;52.832;4.758;2023-07-13T03:56:09;9.68;;;2.50;;
11614;SDS011;5863;52.832;4.758;2023-07-13T03:58:39;10.30;;;2.55;;
11614;SDS011;5863;52.832;4.758;2023-07-13T04:01:07;9.30;;;2.33;;
11614;SDS011;5863;52.832;4.758;2023-07-13T04:03:35;8.55;;;2.67;;
11614;SDS011;5863;52.832;4.758;2023-07-13T04:06:04;7.28;;;2.20;;
11614;SDS011;5863;52.832;4.758;2023-07-13T04:08:33;7.07;;;2.30;;
11614;SDS011;5863;52.832;4.758;2023-07-13T04:11:03;5.55;;;2.55;;
11614;SDS011;5863;52.832;4.758;2023-07-13T04:13:32;7.50;;;2.30;;
11614;SDS011;5863;52.832;4.758;2023-07-13T04:15:58;6.07;;;2.42;;
11614;SDS011;5863;52.832;4.758;2023-07-13T04:18:25;9.18;;;2.30;;
11614;SDS011;5863;52.832;4.758;2023-07-13T04:20:53;9.45;;;2.50;;
11614;SDS011;5863;52.832;4.758;2023-07-13T04:23:20;8.10;;;2.20;;
11614;SDS011;5863;52.832;4.758;2023-07-13T04:25:47;7.53;;;2.35;;
11614;SDS011;5863;52.832;4.758;2023-07-13T04:28:17;8.50;;;2.28;;
11614;SDS011;5863;52.832;4.758;2023-07-13T04:30:46;6.63;;;2.47;;
11614;SDS011;5863;52.832;4.758;2023-07-13T04:33:14;10.68;;;2.97;;
11614;SDS011;5863;52.832;4.758;2023-07-13T04:35:42;6.95;;;2.30;;
11614;SDS011;5863;52.832;4.758;2023-07-13T04:38:11;11.30;;;2.60;;
11614;SDS011;5863;52.832;4.758;2023-07-13T04:40:42;7.40;;;2.25;;
11614;SDS011;5863;52.832;4.758;2023-07-13T04:43:09;7.40;;;2.05;;
11614;SDS011;5863;52.832;4.758;2023-07-13T04:45:36;6.03;;;2.42;;
11614;SDS011;5863;52.832;4.758;2023-07-13T04:48:04;10.23;;;3.15;;
11614;SDS011;5863;52.832;4.758;2023-07-13T04:50:33;9.10;;;2.55;;
11614;SDS011;5863;52.832;4.758;2023-07-13T04:53:02;8.55;;;2.28;;
11614;SDS011;5863;52.832;4.758;2023-07-13T04:55:34;8.05;;;2.20;;
11614;SDS011;5863;52.832;4.758;2023-07-13T04:58:00;10.35;;;2.30;;
11614;SDS011;5863;52.832;4.758;2023-07-13T05:00:27;10.65;;;2.58;;
11614;SDS011;5863;52.832;4.758;2023-07-13T05:02:56;6.78;;;2.53;;
11614;SDS011;5863;52.832;4.758;2023-07-13T05:05:26;7.07;;;2.38;;
11614;SDS011;5863;52.832;4.758;2023-07-13T05:07:53;6.00;;;2.33;;
11614;SDS011;5863;52.832;4.758;2023-07-13T05:10:21;7.75;;;2.63;;
11614;SDS011;5863;52.832;4.758;2023-07-13T05:12:49;7.05;;;2.10;;
11614;SDS011;5863;52.832;4.758;2023-07-13T05:15:16;6.63;;;2.28;;
11614;SDS011;5863;52.832;4.758;2023-07-13T05:17:46;5.60;;;2.13;;
11614;SDS011;5863;52.832;4.758;2023-07-13T05:20:13;6.35;;;2.45;;
11614;SDS011;5863;52.832;4.758;2023-07-13T05:22:42;5.72;;;2.33;;
11614;SDS011;5863;52.832;4.758;2023-07-13T05:25:09;9.32;;;3.35;;
11614;SDS011;5863;52.832;4.758;2023-07-13T05:27:38;10.18;;;2.38;;
11614;SDS011;5863;52.832;4.758;2023-07-13T05:30:05;8.75;;;2.47;;
11614;SDS011;5863;52.832;4.758;2023-07-13T05:32:37;6.32;;;2.25;;
11614;SDS011;5863;52.832;4.758;2023-07-13T05:35:04;10.82;;;2.47;;
11614;SDS011;5863;52.832;4.758;2023-07-13T05:37:31;6.50;;;2.38;;
11614;SDS011;5863;52.832;4.758;2023-07-13T05:40:00;8.90;;;2.65;;
11614;SDS011;5863;52.832;4.758;2023-07-13T05:42:27;7.88;;;2.20;;
11614;SDS011;5863;52.832;4.758;2023-07-13T05:44:56;6.93;;;2.50;;
11614;SDS011;5863;52.832;4.758;2023-07-13T05:47:23;5.93;;;2.28;;
11614;SDS011;5863;52.832;4.758;2023-07-13T05:49:50;6.97;;;2.20;;
11614;SDS011;5863;52.832;4.758;2023-07-13T05:52:17;8.20;;;2.30;;
11614;SDS011;5863;52.832;4.758;2023-07-13T05:54:43;7.38;;;2.20;;
11614;SDS011;5863;52.832;4.758;2023-07-13T05:57:12;5.95;;;2.17;;
11614;SDS011;5863;52.832;4.758;2023-07-13T05:59:39;6.60;;;2.30;;
11614;SDS011;5863;52.832;4.758;2023-07-13T06:02:07;5.57;;;2.15;;
11614;SDS011;5863;52.832;4.758;2023-07-13T06:04:35;7.28;;;2.00;;
11614;SDS011;5863;52.832;4.758;2023-07-13T06:07:02;8.30;;;2.35;;
11614;SDS011;5863;52.832;4.758;2023-07-13T06:09:29;8.68;;;2.50;;
11614;SDS011;5863;52.832;4.758;2023-07-13T06:11:56;6.05;;;2.30;;
11614;SDS011;5863;52.832;4.758;2023-07-13T06:14:25;6.95;;;2.35;;
11614;SDS011;5863;52.832;4.758;2023-07-13T06:16:52;5.88;;;2.10;;
11614;SDS011;5863;52.832;4.758;2023-07-13T06:19:19;5.85;;;2.13;;
11614;SDS011;5863;52.832;4.758;2023-07-13T06:21:46;5.82;;;2.10;;
11614;SDS011;5863;52.832;4.758;2023-07-13T06:24:13;7.65;;;2.45;;
11614;SDS011;5863;52.832;4.758;2023-07-13T06:26:41;7.10;;;2.17;;
11614;SDS011;5863;52.832;4.758;2023-07-13T06:29:08;5.07;;;1.98;;
11614;SDS011;5863;52.832;4.758;2023-07-13T06:31:36;3.35;;;1.60;;
11614;SDS011;5863;52.832;4.758;2023-07-13T06:34:03;4.38;;;2.22;;
11614;SDS011;5863;52.832;4.758;2023-07-13T06:36:30;3.53;;;1.88;;
11614;SDS011;5863;52.832;4.758;2023-07-13T06:38:57;6.20;;;2.00;;
11614;SDS011;5863;52.832;4.758;2023-07-13T06:41:24;5.30;;;1.65;;
11614;SDS011;5863;52.832;4.758;2023-07-13T06:43:51;6.07;;;1.77;;
11614;SDS011;5863;52.832;4.758;2023-07-13T06:46:19;4.30;;;1.90;;
11614;SDS011;5863;52.832;4.758;2023-07-13T06:48:48;6.22;;;2.08;;
11614;SDS011;5863;52.832;4.758;2023-07-13T06:51:15;5.47;;;2.00;;
11614;SDS011;5863;52.832;4.758;2023-07-13T06:53:42;5.10;;;1.70;;
11614;SDS011;5863;52.832;4.758;2023-07-13T06:56:09;2.33;;;1.40;;
11614;SDS011;5863;52.832;4.758;2023-07-13T06:58:37;4.72;;;1.85;;
11614;SDS011;5863;52.832;4.758;2023-07-13T07:01:04;2.97;;;1.60;;
11614;SDS011;5863;52.832;4.758;2023-07-13T07:03:31;4.32;;;1.67;;
11614;SDS011;5863;52.832;4.758;2023-07-13T07:06:01;6.93;;;1.55;;
11614;SDS011;5863;52.832;4.758;2023-07-13T07:08:34;6.03;;;1.85;;
11614;SDS011;5863;52.832;4.758;2023-07-13T07:11:01;5.13;;;1.50;;
11614;SDS011;5863;52.832;4.758;2023-07-13T07:13:38;2.75;;;1.55;;
11614;SDS011;5863;52.832;4.758;2023-07-13T07:16:06;3.63;;;1.60;;
11614;SDS011;5863;52.832;4.758;2023-07-13T07:18:33;4.70;;;1.60;;
11614;SDS011;5863;52.832;4.758;2023-07-13T07:21:02;3.78;;;1.58;;
11614;SDS011;5863;52.832;4.758;2023-07-13T07:23:29;3.78;;;1.60;;
11614;SDS011;5863;52.832;4.758;2023-07-13T07:25:56;3.33;;;1.40;;
11614;SDS011;5863;52.832;4.758;2023-07-13T07:28:23;5.70;;;1.63;;
11614;SDS011;5863;52.832;4.758;2023-07-13T07:30:53;4.78;;;1.73;;
11614;SDS011;5863;52.832;4.758;2023-07-13T07:33:21;3.85;;;1.50;;
11614;SDS011;5863;52.832;4.758;2023-07-13T07:35:48;3.65;;;1.30;;
11614;SDS011;5863;52.832;4.758;2023-07-13T07:38:16;2.03;;;1.20;;
11614;SDS011;5863;52.832;4.758;2023-07-13T07:40:43;4.90;;;1.67;;
11614;SDS011;5863;52.832;4.758;2023-07-13T07:43:11;3.85;;;1.60;;
11614;SDS011;5863;52.832;4.758;2023-07-13T07:45:39;3.33;;;1.58;;
11614;SDS011;5863;52.832;4.758;2023-07-13T07:48:06;4.50;;;1.65;;
11614;SDS011;5863;52.832;4.758;2023-07-13T07:50:34;4.35;;;1.40;;
11614;SDS011;5863;52.832;4.758;2023-07-13T07:53:04;4.38;;;1.67;;
11614;SDS011;5863;52.832;4.758;2023-07-13T07:55:34;2.25;;;1.55;;
11614;SDS011;5863;52.832;4.758;2023-07-13T07:58:01;5.03;;;1.58;;
11614;SDS011;5863;52.832;4.758;2023-07-13T08:00:28;4.85;;;1.58;;
11614;SDS011;5863;52.832;4.758;2023-07-13T08:02:56;2.75;;;1.48;;
11614;SDS011;5863;52.832;4.758;2023-07-13T08:05:24;3.78;;;1.48;;
11614;SDS011;5863;52.832;4.758;2023-07-13T08:07:51;4.35;;;1.67;;
11614;SDS011;5863;52.832;4.758;2023-07-13T08:10:18;4.90;;;1.58;;
11614;SDS011;5863;52.832;4.758;2023-07-13T08:12:47;2.53;;;1.58;;
11614;SDS011;5863;52.832;4.758;2023-07-13T08:15:14;4.30;;;1.60;;
11614;SDS011;5863;52.832;4.758;2023-07-13T08:17:45;5.07;;;1.42;;
11614;SDS011;5863;52.832;4.758;2023-07-13T08:20:13;2.53;;;1.38;;
11614;SDS011;5863;52.832;4.758;2023-07-13T08:22:40;4.57;;;1.55;;
11614;SDS011;5863;52.832;4.758;2023-07-13T08:25:07;4.20;;;1.77;;
11614;SDS011;5863;52.832;4.758;2023-07-13T08:27:34;3.88;;;1.70;;
11614;SDS011;5863;52.832;4.758;2023-07-13T08:30:03;3.47;;;1.80;;
11614;SDS011;5863;52.832;4.758;2023-07-13T08:32:31;3.38;;;1.63;;
11614;SDS011;5863;52.832;4.758;2023-07-13T08:34:57;6.13;;;1.85;;
11614;SDS011;5863;52.832;4.758;2023-07-13T08:37:24;6.43;;;2.35;;
11614;SDS011;5863;52.832;4.758;2023-07-13T08:39:51;6.05;;;2.40;;
11614;SDS011;5863;52.832;4.758;2023-07-13T08:42:22;4.25;;;1.80;;
11614;SDS011;5863;52.832;4.758;2023-07-13T08:45:04;4.85;;;1.70;;
11614;SDS011;5863;52.832;4.758;2023-07-13T08:47:39;5.38;;;1.83;;
11614;SDS011;5863;52.832;4.758;2023-07-13T08:50:12;6.80;;;1.88;;
11614;SDS011;5863;52.832;4.758;2023-07-13T08:52:43;5.07;;;1.83;;
11614;SDS011;5863;52.832;4.758;2023-07-13T08:55:12;5.63;;;2.05;;
11614;SDS011;5863;52.832;4.758;2023-07-13T08:57:43;6.65;;;1.85;;
11614;SDS011;5863;52.832;4.758;2023-07-13T09:00:15;3.72;;;2.00;;
11614;SDS011;5863;52.832;4.758;2023-07-13T09:02:43;5.80;;;2.30;;
11614;SDS011;5863;52.832;4.758;2023-07-13T09:05:16;4.95;;;2.10;;
11614;SDS011;5863;52.832;4.758;2023-07-13T09:07:55;7.18;;;2.55;;
11614;SDS011;5863;52.832;4.758;2023-07-13T09:10:32;5.25;;;2.20;;
11614;SDS011;5863;52.832;4.758;2023-07-13T09:13:07;9.35;;;2.47;;
11614;SDS011;5863;52.832;4.758;2023-07-13T09:15:46;4.70;;;2.55;;
11614;SDS011;5863;52.832;4.758;2023-07-13T09:18:16;6.13;;;1.98;;
11614;SDS011;5863;52.832;4.758;2023-07-13T09:20:49;7.43;;;2.67;;
11614;SDS011;5863;52.832;4.758;2023-07-13T09:23:20;5.53;;;2.35;;
11614;SDS011;5863;52.832;4.758;2023-07-13T09:25:50;5.85;;;2.28;;
11614;SDS011;5863;52.832;4.758;2023-07-13T09:28:22;7.82;;;2.22;;
11614;SDS011;5863;52.832;4.758;2023-07-13T09:30:53;9.20;;;2.55;;
11614;SDS011;5863;52.832;4.758;2023-07-13T09:33:26;9.90;;;2.63;;
11614;SDS011;5863;52.832;4.758;2023-07-13T09:35:55;8.38;;;2.70;;
11614;SDS011;5863;52.832;4.758;2023-07-13T09:38:24;10.82;;;2.72;;
11614;SDS011;5863;52.832;4.758;2023-07-13T09:40:58;7.50;;;2.53;;
11614;SDS011;5863;52.832;4.758;2023-07-13T09:43:29;9.60;;;2.92;;
11614;SDS011;5863;52.832;4.758;2023-07-13T09:45:58;7.03;;;2.80;;
11614;SDS011;5863;52.832;4.758;2023-07-13T09:48:25;4.03;;;2.25;;
11614;SDS011;5863;52.832;4.758;2023-07-13T09:51:01;9.02;;;2.90;;
11614;SDS011;5863;52.832;4.758;2023-07-13T09:53:33;6.88;;;2.80;;
11614;SDS011;5863;52.832;4.758;2023-07-13T09:56:00;8.63;;;2.85;;
11614;SDS011;5863;52.832;4.758;2023-07-13T09:58:29;9.80;;;2.60;;
11614;SDS011;5863;52.832;4.758;2023-07-13T10:01:00;6.90;;;2.70;;
11614;SDS011;5863;52.832;4.758;2023-07-13T10:03:28;7.18;;;2.45;;
11614;SDS011;5863;52.832;4.758;2023-07-13T10:06:04;7.95;;;2.85;;
11614;SDS011;5863;52.832;4.758;2023-07-13T10:08:37;8.57;;;2.72;;
11614;SDS011;5863;52.832;4.758;2023-07-13T10:11:08;8.18;;;2.70;;
11614;SDS011;5863;52.832;4.758;2023-07-13T10:13:39;7.15;;;2.67;;
11614;SDS011;5863;52.832;4.758;2023-07-13T10:16:10;6.55;;;2.55;;
11614;SDS011;5863;52.832;4.758;2023-07-13T10:18:39;9.00;;;2.65;;
11614;SDS011;5863;52.832;4.758;2023-07-13T10:21:13;8.02;;;2.88;;
11614;SDS011;5863;52.832;4.758;2023-07-13T10:23:43;8.15;;;2.80;;
11614;SDS011;5863;52.832;4.758;2023-07-13T10:26:16;7.80;;;2.67;;
11614;SDS011;5863;52.832;4.758;2023-07-13T10:28:49;6.60;;;2.63;;
11614;SDS011;5863;52.832;4.758;2023-07-13T10:31:19;5.93;;;2.33;;
11614;SDS011;5863;52.832;4.758;2023-07-13T10:33:48;8.23;;;2.72;;
11614;SDS011;5863;52.832;4.758;2023-07-13T10:36:17;6.10;;;2.85;;
11614;SDS011;5863;52.832;4.758;2023-07-13T10:38:50;5.32;;;2.40;;
11614;SDS011;5863;52.832;4.758;2023-07-13T10:41:20;9.13;;;2.95;;
11614;SDS011;5863;52.832;4.758;2023-07-13T10:43:49;9.43;;;2.55;;
11614;SDS011;5863;52.832;4.758;2023-07-13T10:46:20;8.55;;;2.88;;
11614;SDS011;5863;52.832;4.758;2023-07-13T10:48:49;8.75;;;2.83;;
11614;SDS011;5863;52.832;4.758;2023-07-13T10:51:19;6.47;;;2.63;;
11614;SDS011;5863;52.832;4.758;2023-07-13T10:54:10;5.10;;;2.55;;
11614;SDS011;5863;52.832;4.758;2023-07-13T10:56:43;4.38;;;2.20;;
11614;SDS011;5863;52.832;4.758;2023-07-13T10:59:12;7.70;;;2.60;;
11614;SDS011;5863;52.832;4.758;2023-07-13T11:01:50;9.25;;;3.13;;
11614;SDS011;5863;52.832;4.758;2023-07-13T11:04:21;6.38;;;2.80;;
11614;SDS011;5863;52.832;4.758;2023-07-13T11:06:50;4.60;;;2.30;;
11614;SDS011;5863;52.832;4.758;2023-07-13T11:09:38;6.25;;;2.65;;
11614;SDS011;5863;52.832;4.758;2023-07-13T11:12:10;7.20;;;2.72;;
11614;SDS011;5863;52.832;4.758;2023-07-13T11:15:01;9.25;;;2.78;;
11614;SDS011;5863;52.832;4.758;2023-07-13T11:17:38;6.57;;;2.78;;
11614;SDS011;5863;52.832;4.758;2023-07-13T11:20:23;8.18;;;2.80;;
11614;SDS011;5863;52.832;4.758;2023-07-13T11:23:08;6.30;;;2.45;;
11614;SDS011;5863;52.832;4.758;2023-07-13T11:25:46;7.15;;;2.40;;
11614;SDS011;5863;52.832;4.758;2023-07-13T11:28:22;8.38;;;2.95;;
11614;SDS011;5863;52.832;4.758;2023-07-13T11:30:59;6.93;;;2.90;;
11614;SDS011;5863;52.832;4.758;2023-07-13T11:36:36;8.88;;;2.50;;
11614;SDS011;5863;52.832;4.758;2023-07-13T11:39:12;8.18;;;2.80;;
11614;SDS011;5863;52.832;4.758;2023-07-13T11:41:49;10.38;;;3.00;;
11614;SDS011;5863;52.832;4.758;2023-07-13T11:44:18;9.23;;;3.05;;
11614;SDS011;5863;52.832;4.758;2023-07-13T11:46:47;8.25;;;2.70;;
11614;SDS011;5863;52.832;4.758;2023-07-13T11:49:18;7.53;;;3.20;;
11614;SDS011;5863;52.832;4.758;2023-07-13T11:51:46;4.45;;;2.70;;
11614;SDS011;5863;52.832;4.758;2023-07-13T11:54:22;5.15;;;2.58;;
11614;SDS011;5863;52.832;4.758;2023-07-13T11:56:52;7.68;;;2.80;;
11614;SDS011;5863;52.832;4.758;2023-07-13T11:59:21;10.43;;;2.90;;
11614;SDS011;5863;52.832;4.758;2023-07-13T12:01:49;10.43;;;2.88;;
11614;SDS011;5863;52.832;4.758;2023-07-13T12:04:21;7.20;;;2.70;;
11614;SDS011;5863;52.832;4.758;2023-07-13T12:06:54;9.60;;;2.75;;
11614;SDS011;5863;52.832;4.758;2023-07-13T12:09:25;7.80;;;2.78;;
11614;SDS011;5863;52.832;4.758;2023-07-13T12:11:53;9.02;;;2.83;;
11614;SDS011;5863;52.832;4.758;2023-07-13T12:14:22;6.18;;;2.50;;
11614;SDS011;5863;52.832;4.758;2023-07-13T12:16:51;14.73;;;3.47;;
11614;SDS011;5863;52.832;4.758;2023-07-13T12:19:21;10.13;;;3.67;;
11614;SDS011;5863;52.832;4.758;2023-07-13T12:21:50;8.40;;;2.40;;
11614;SDS011;5863;52.832;4.758;2023-07-13T12:24:20;6.75;;;2.80;;
11614;SDS011;5863;52.832;4.758;2023-07-13T12:26:52;7.07;;;2.72;;
11614;SDS011;5863;52.832;4.758;2023-07-13T12:29:20;7.75;;;2.70;;
11614;SDS011;5863;52.832;4.758;2023-07-13T12:31:47;9.50;;;2.92;;
11614;SDS011;5863;52.832;4.758;2023-07-13T12:34:18;10.75;;;3.22;;
11614;SDS011;5863;52.832;4.758;2023-07-13T12:36:49;7.70;;;2.80;;
11614;SDS011;5863;52.832;4.758;2023-07-13T12:39:18;11.48;;;3.00;;
11614;SDS011;5863;52.832;4.758;2023-07-13T12:41:48;8.30;;;2.70;;
11614;SDS011;5863;52.832;4.758;2023-07-13T12:44:17;9.88;;;3.00;;
11614;SDS011;5863;52.832;4.758;2023-07-13T12:46:57;7.65;;;2.92;;
11614;SDS011;5863;52.832;4.758;2023-07-13T12:49:31;6.65;;;2.55;;
11614;SDS011;5863;52.832;4.758;2023-07-13T12:52:02;8.88;;;2.80;;
11614;SDS011;5863;52.832;4.758;2023-07-13T12:54:30;7.80;;;2.90;;
11614;SDS011;5863;52.832;4.758;2023-07-13T12:56:59;7.53;;;2.80;;
11614;SDS011;5863;52.832;4.758;2023-07-13T12:59:29;10.77;;;2.97;;
11614;SDS011;5863;52.832;4.758;2023-07-13T13:02:12;6.07;;;2.70;;
11614;SDS011;5863;52.832;4.758;2023-07-13T13:04:52;5.95;;;2.70;;
11614;SDS011;5863;52.832;4.758;2023-07-13T13:07:22;7.85;;;2.80;;
11614;SDS011;5863;52.832;4.758;2023-07-13T13:09:50;7.35;;;2.50;;
11614;SDS011;5863;52.832;4.758;2023-07-13T13:12:18;6.18;;;2.60;;
11614;SDS011;5863;52.832;4.758;2023-07-13T13:14:45;8.63;;;3.38;;
11614;SDS011;5863;52.832;4.758;2023-07-13T13:17:16;9.40;;;2.70;;
11614;SDS011;5863;52.832;4.758;2023-07-13T13:19:46;9.52;;;3.20;;
11614;SDS011;5863;52.832;4.758;2023-07-13T13:22:13;11.63;;;3.10;;
11614;SDS011;5863;52.832;4.758;2023-07-13T13:24:41;4.63;;;2.60;;
11614;SDS011;5863;52.832;4.758;2023-07-13T13:27:11;8.85;;;2.58;;
11614;SDS011;5863;52.832;4.758;2023-07-13T13:29:44;8.95;;;2.90;;
11614;SDS011;5863;52.832;4.758;2023-07-13T13:32:12;8.55;;;3.08;;
11614;SDS011;5863;52.832;4.758;2023-07-13T13:34:41;8.02;;;2.60;;
11614;SDS011;5863;52.832;4.758;2023-07-13T13:37:18;6.28;;;2.47;;
11614;SDS011;5863;52.832;4.758;2023-07-13T13:39:48;7.22;;;2.72;;
11614;SDS011;5863;52.832;4.758;2023-07-13T13:42:16;9.15;;;3.50;;
11614;SDS011;5863;52.832;4.758;2023-07-13T13:44:43;8.45;;;2.75;;
11614;SDS011;5863;52.832;4.758;2023-07-13T13:47:18;7.18;;;3.05;;
11614;SDS011;5863;52.832;4.758;2023-07-13T13:49:53;7.82;;;2.80;;
11614;SDS011;5863;52.832;4.758;2023-07-13T13:52:20;6.65;;;2.60;;
11614;SDS011;5863;52.832;4.758;2023-07-13T13:54:48;7.10;;;2.85;;
11614;SDS011;5863;52.832;4.758;2023-07-13T13:57:20;4.00;;;2.30;;
11614;SDS011;5863;52.832;4.758;2023-07-13T13:59:48;8.68;;;3.10;;
11614;SDS011;5863;52.832;4.758;2023-07-13T14:02:20;4.10;;;2.53;;
11614;SDS011;5863;52.832;4.758;2023-07-13T14:04:50;7.32;;;2.67;;
11614;SDS011;5863;52.832;4.758;2023-07-13T14:07:21;7.38;;;2.92;;
11614;SDS011;5863;52.832;4.758;2023-07-13T14:09:49;5.20;;;2.60;;
11614;SDS011;5863;52.832;4.758;2023-07-13T14:12:17;8.45;;;2.95;;
11614;SDS011;5863;52.832;4.758;2023-07-13T14:14:44;8.48;;;3.10;;
11614;SDS011;5863;52.832;4.758;2023-07-13T14:17:16;7.38;;;2.72;;
11614;SDS011;5863;52.832;4.758;2023-07-13T14:19:47;7.32;;;2.75;;
11614;SDS011;5863;52.832;4.758;2023-07-13T14:22:16;7.28;;;3.05;;
11614;SDS011;5863;52.832;4.758;2023-07-13T14:24:43;5.32;;;2.70;;
11614;SDS011;5863;52.832;4.758;2023-07-13T14:27:12;6.15;;;2.70;;
11614;SDS011;5863;52.832;4.758;2023-07-13T14:29:39;6.55;;;2.63;;
11614;SDS011;5863;52.832;4.758;2023-07-13T14:32:08;6.03;;;2.75;;
11614;SDS011;5863;52.832;4.758;2023-07-13T14:34:36;8.13;;;2.92;;
11614;SDS011;5863;52.832;4.758;2023-07-13T14:37:04;6.00;;;2.63;;
11614;SDS011;5863;52.832;4.758;2023-07-13T14:39:31;8.18;;;2.80;;
11614;SDS011;5863;52.832;4.758;2023-07-13T14:41:58;5.68;;;2.60;;
11614;SDS011;5863;52.832;4.758;2023-07-13T14:44:28;5.80;;;2.85;;
11614;SDS011;5863;52.832;4.758;2023-07-13T14:46:57;6.40;;;2.90;;
11614;SDS011;5863;52.832;4.758;2023-07-13T14:49:27;5.03;;;2.40;;
11614;SDS011;5863;52.832;4.758;2023-07-13T14:51:56;5.65;;;2.78;;
11614;SDS011;5863;52.832;4.758;2023-07-13T14:54:25;6.95;;;2.80;;
11614;SDS011;5863;52.832;4.758;2023-07-13T14:56:52;6.53;;;3.10;;
11614;SDS011;5863;52.832;4.758;2023-07-13T14:59:19;9.68;;;3.13;;
11614;SDS011;5863;52.832;4.758;2023-07-13T15:01:47;7.45;;;2.60;;
11614;SDS011;5863;52.832;4.758;2023-07-13T15:04:17;8.57;;;3.00;;
11614;SDS011;5863;52.832;4.758;2023-07-13T15:06:52;7.45;;;2.85;;
11614;SDS011;5863;52.832;4.758;2023-07-13T15:09:21;6.07;;;2.95;;
11614;SDS011;5863;52.832;4.758;2023-07-13T15:11:49;6.85;;;2.72;;
11614;SDS011;5863;52.832;4.758;2023-07-13T15:14:16;8.43;;;2.85;;
11614;SDS011;5863;52.832;4.758;2023-07-13T15:16:43;9.27;;;3.20;;